Terminal Aerodrome Forecast
Issued by NWS Mt. Holly, NJ

Home | Current Version | Previous Version | Text Only | Print | Product List | Glossary On
Versions: 1 2 3 4 5 6 7 8 9 10 11 12 13 14 15 16 17 18 19
000
FTUS41 KPHI 241731
TAFACY
TAF
KACY 241731Z 2418/2518 20010G18KT P6SM FEW060 BKN250
     FM250000 19008KT P6SM BKN200
     FM251500 23012G20KT P6SM FEW050 SCT200=

USA.gov is the U.S. government's official web portal to all federal, state and local government web resources and services.